createdAt,value
2022-09-22T00:01:44.962Z,94.3
2022-09-22T00:06:44.943Z,94.3
2022-09-22T00:11:44.914Z,94.5
2022-09-22T00:16:45.177Z,94.7
2022-09-22T00:21:44.956Z,94.4
2022-09-22T00:26:44.942Z,94.4
2022-09-22T00:31:44.988Z,93.9
2022-09-22T00:36:44.917Z,93.3
2022-09-22T00:41:44.947Z,93
2022-09-22T00:46:44.993Z,92.7
2022-09-22T00:51:44.947Z,92.5
2022-09-22T00:56:44.932Z,92.6
2022-09-22T01:01:44.970Z,92.6
2022-09-22T01:06:44.944Z,92.7
2022-09-22T01:11:44.957Z,92.3
2022-09-22T01:16:44.919Z,92.1
2022-09-22T01:21:44.950Z,92.7
2022-09-22T01:26:45.006Z,92.8
2022-09-22T01:31:44.985Z,92.9
2022-09-22T01:36:44.935Z,93.2
2022-09-22T01:41:44.932Z,93.5
2022-09-22T01:46:45.023Z,94.2
2022-09-22T01:51:44.937Z,94.1
2022-09-22T01:56:44.928Z,94.3
2022-09-22T02:01:45.057Z,95.3
2022-09-22T02:06:44.955Z,94.6
2022-09-22T02:11:44.944Z,93.8
2022-09-22T02:16:44.925Z,94.5
2022-09-22T02:21:44.949Z,95.2
2022-09-22T02:26:45.048Z,95
2022-09-22T02:31:44.967Z,95.8
2022-09-22T02:36:44.944Z,95.4
2022-09-22T02:41:44.970Z,95.1
2022-09-22T02:46:45.022Z,94.6
2022-09-22T02:51:44.955Z,94.5
2022-09-22T02:56:44.944Z,94.3
2022-09-22T03:01:45.011Z,94.5
2022-09-22T03:06:44.964Z,94
2022-09-22T03:11:44.951Z,94.6
2022-09-22T03:16:44.950Z,94.6
2022-09-22T03:21:44.950Z,94.8
2022-09-22T03:26:45.239Z,94.6
2022-09-22T03:31:44.988Z,94
2022-09-22T03:36:44.988Z,93.5
2022-09-22T03:41:44.985Z,93.5
2022-09-22T03:46:45.015Z,93.2
2022-09-22T03:51:44.994Z,92.9
2022-09-22T03:56:44.993Z,93.9
2022-09-22T04:01:45.030Z,94.6
2022-09-22T04:06:45.009Z,94.9
2022-09-22T04:11:44.980Z,94.9
2022-09-22T04:16:45.008Z,94.4
2022-09-22T04:21:44.992Z,94
2022-09-22T04:27:02.122Z,93.2
2022-09-22T04:31:45.162Z,92.6
2022-09-22T04:36:45.193Z,92.7
2022-09-22T04:41:45.210Z,92.8
2022-09-22T04:46:45.241Z,92.4
2022-09-22T04:51:45.283Z,92.5
2022-09-22T04:56:45.258Z,92.6
2022-09-22T05:01:45.401Z,93.1
2022-09-22T05:06:45.384Z,93.8
2022-09-22T05:11:45.412Z,93.2
2022-09-22T05:16:45.460Z,92.9
2022-09-22T05:21:45.414Z,92.9
2022-09-22T05:26:45.706Z,93.2
2022-09-22T05:31:45.442Z,92.5
2022-09-22T05:36:45.422Z,93
2022-09-22T05:41:45.441Z,94.1
2022-09-22T05:46:45.465Z,94.8
2022-09-22T05:51:45.412Z,94
2022-09-22T05:56:45.447Z,95.9
2022-09-22T06:01:45.533Z,96.1
2022-09-22T06:06:45.533Z,97.8
2022-09-22T06:11:45.469Z,98.4
2022-09-22T06:16:45.522Z,99.9
2022-09-22T06:21:45.525Z,99.9
2022-09-22T06:26:45.738Z,99.9
2022-09-22T06:31:45.810Z,99.9
2022-09-22T06:36:45.819Z,99.9
2022-09-22T06:41:45.684Z,99.9
2022-09-22T06:46:45.720Z,99.9
2022-09-22T06:51:45.652Z,99.9
2022-09-22T06:56:45.630Z,99.9
2022-09-22T07:01:45.795Z,99.9
2022-09-22T07:06:45.680Z,99.9
2022-09-22T07:11:45.638Z,99.9
2022-09-22T07:16:45.681Z,99.9
2022-09-22T07:21:45.650Z,99.9
2022-09-22T07:26:45.705Z,99.9
2022-09-22T07:31:45.689Z,99.9
2022-09-22T07:36:45.640Z,99.9
2022-09-22T07:41:45.641Z,99.9
2022-09-22T07:46:45.727Z,99.9
2022-09-22T07:51:45.640Z,99.9
2022-09-22T07:56:45.632Z,99.9
2022-09-22T08:01:45.660Z,99.9
2022-09-22T08:06:45.659Z,99.9
2022-09-22T08:11:45.628Z,99.9
2022-09-22T08:16:45.639Z,99.9
2022-09-22T08:21:49.060Z,99.9
2022-09-22T08:26:48.187Z,99.9
2022-09-22T08:31:45.794Z,99.9
2022-09-22T08:36:45.816Z,99.9
2022-09-22T08:41:45.946Z,99.9
2022-09-22T08:46:46.044Z,99.3
2022-09-22T08:51:46.016Z,98.3
2022-09-22T08:56:46.018Z,97.2
2022-09-22T09:01:46.120Z,97.4
2022-09-22T09:06:46.040Z,96.5
2022-09-22T09:11:46.038Z,93.2
2022-09-22T09:16:45.954Z,83.4
2022-09-22T09:21:45.976Z,90.1
2022-09-22T09:26:46.105Z,79.3
2022-09-22T09:31:45.921Z,84.8
2022-09-22T09:36:45.904Z,82.4
2022-09-22T09:41:45.911Z,80.7
2022-09-22T09:46:46.011Z,77.3
2022-09-22T09:51:45.898Z,76.1
2022-09-22T09:56:45.920Z,68.2
2022-09-22T10:01:46.019Z,65.8
2022-09-22T10:06:45.986Z,66.9
2022-09-22T10:11:45.892Z,65.9
2022-09-22T10:16:45.899Z,67.8
2022-09-22T10:21:45.944Z,61
2022-09-22T10:26:46.183Z,59.9
2022-09-22T10:31:45.929Z,59.3
2022-09-22T10:36:45.917Z,57.4
2022-09-22T10:41:45.906Z,56.7
2022-09-22T10:46:45.995Z,57.8
2022-09-22T10:51:45.902Z,59.3
2022-09-22T10:56:45.896Z,58.4
2022-09-22T11:01:45.966Z,56.9
2022-09-22T11:06:45.931Z,57.7
2022-09-22T11:11:45.919Z,55.9
2022-09-22T11:16:45.891Z,55.5
2022-09-22T11:21:45.919Z,55.5
2022-09-22T11:26:45.919Z,51.4
2022-09-22T11:31:45.921Z,52.4
2022-09-22T11:36:50.784Z,51.6
2022-09-22T11:41:45.898Z,51.1
2022-09-22T11:46:45.926Z,50.8
2022-09-22T11:51:45.890Z,50
2022-09-22T11:56:45.904Z,49.3
2022-09-22T12:01:45.887Z,47.4
2022-09-22T12:06:45.914Z,47.5
2022-09-22T12:11:45.896Z,48.3
2022-09-22T12:16:45.888Z,45.6
2022-09-22T12:21:45.889Z,44.3
2022-09-22T12:26:45.908Z,43.5
2022-09-22T12:31:45.887Z,43.7
2022-09-22T12:36:45.882Z,42.9
2022-09-22T12:41:45.875Z,43.6
2022-09-22T12:46:45.896Z,42.3
2022-09-22T12:51:45.862Z,43.1
2022-09-22T12:56:45.886Z,41.9
2022-09-22T13:01:45.911Z,42.2
2022-09-22T13:06:45.902Z,42.1
2022-09-22T13:11:45.870Z,40.9
2022-09-22T13:16:45.913Z,38.5
2022-09-22T13:21:45.863Z,39
2022-09-22T13:26:45.955Z,37
2022-09-22T13:31:45.857Z,39.2
2022-09-22T13:36:45.879Z,39.2
2022-09-22T13:41:45.858Z,37.8
2022-09-22T13:46:45.885Z,37.8
2022-09-22T13:51:45.854Z,38.2
2022-09-22T13:56:45.854Z,38.5
2022-09-22T14:01:45.897Z,37.5
2022-09-22T14:06:45.993Z,37.8
2022-09-22T14:11:45.860Z,37.2
2022-09-22T14:16:45.925Z,37.4
2022-09-22T14:21:45.877Z,38.1
2022-09-22T14:26:45.876Z,36.9
2022-09-22T14:31:45.943Z,35.1
2022-09-22T14:36:45.846Z,35.4
2022-09-22T14:41:45.840Z,35.1
2022-09-22T14:46:45.883Z,34.7
2022-09-22T14:51:45.858Z,34.4
2022-09-22T14:56:45.853Z,34.5
2022-09-22T15:01:45.855Z,35
2022-09-22T15:06:45.671Z,35.7
2022-09-22T15:11:45.644Z,36.5
2022-09-22T15:16:45.700Z,36.5
2022-09-22T15:21:45.649Z,36.1
2022-09-22T15:26:45.666Z,34.9
2022-09-22T15:31:45.904Z,35.4
2022-09-22T15:36:45.662Z,35.7
2022-09-22T15:41:45.838Z,35.7
2022-09-22T15:46:45.861Z,35.4
2022-09-22T15:51:45.829Z,36.3
2022-09-22T15:56:45.830Z,36.2
2022-09-22T16:01:45.854Z,37.3
2022-09-22T16:06:45.929Z,38.1
2022-09-22T16:11:45.844Z,39
2022-09-22T16:16:45.834Z,38.3
2022-09-22T16:21:45.844Z,39.2
2022-09-22T16:26:45.866Z,38.9
2022-09-22T16:31:45.918Z,39.5
2022-09-22T16:36:45.850Z,40.5
2022-09-22T16:41:45.836Z,41.1
2022-09-22T16:46:45.927Z,41.8
2022-09-22T16:51:45.839Z,42.1
2022-09-22T16:56:45.829Z,43.5
2022-09-22T17:01:45.909Z,44.6
2022-09-22T17:06:45.884Z,45.4
2022-09-22T17:12:55.513Z,45.9
2022-09-22T17:21:56.840Z,48
2022-09-22T17:33:43.424Z,49.2
2022-09-22T18:09:11.840Z,53
2022-09-22T18:22:50.774Z,54.5
2022-09-22T18:49:47.094Z,58.7
2022-09-22T18:54:47.017Z,58.7
